Time;durP1;ratioP1;P1;durP2;ratioP2;P2;SDS_P1;SDS_P2;PMS_P1;PMS_P2;Temp;Humidity;BMP_temperature;BMP_pressure;BME280_temperature;BME280_humidity;BME280_pressure;Samples;Min_cycle;Max_cycle;Signal;HPM_P1;HPM_P2
2022/06/22 00:01:09;;;;;;;5.10;2.00;;;;;;;11.99;93.09;96320.00;10368569;28;20229;-52
2022/06/22 00:06:21;;;;;;;6.70;2.10;;;;;;;12.11;92.43;96323.84;10352222;28;20217;-57
2022/06/22 00:11:22;;;;;;;2.90;1.80;;;;;;;12.32;91.15;96323.19;10370093;28;20193;-54
2022/06/22 00:16:30;;;;;;;3.88;1.70;;;;;;;12.39;90.46;96324.13;10351701;28;20750;-56
2022/06/22 00:21:35;;;;;;;2.97;2.10;;;;;;;12.45;90.95;96320.78;10369421;28;20225;-57
2022/06/22 00:26:36;;;;;;;3.00;2.22;;;;;;;12.39;91.84;96316.25;10369374;28;20217;-58
2022/06/22 00:31:42;;;;;;;5.13;2.10;;;;;;;12.37;91.72;96312.97;10368235;28;20189;-56
2022/06/22 00:36:49;;;;;;;4.43;1.90;;;;;;;12.48;91.60;96316.97;10369576;28;20209;-56
2022/06/22 00:41:56;;;;;;;4.05;2.05;;;;;;;12.45;92.80;96314.69;10369432;28;20225;-56
2022/06/22 00:47:00;;;;;;;5.55;2.10;;;;;;;12.28;95.43;96329.78;10368265;28;20214;-56
2022/06/22 00:52:04;;;;;;;5.32;2.03;;;;;;;12.48;94.84;96320.44;10351584;28;20183;-54
2022/06/22 00:57:11;;;;;;;3.72;1.98;;;;;;;12.64;93.98;96308.13;10352081;28;20213;-56
2022/06/22 01:02:18;;;;;;;4.95;2.80;;;;;;;12.31;94.77;96313.69;10368129;28;20723;-53
2022/06/22 01:07:39;;;;;;;4.53;2.30;;;;;;;12.48;95.78;96302.03;10368746;28;20225;-52
2022/06/22 01:12:54;;;;;;;4.63;2.50;;;;;;;12.34;96.72;96291.50;10368920;28;20207;-51
2022/06/22 01:17:57;;;;;;;3.30;2.10;;;;;;;12.21;98.37;96279.78;10375766;28;20332;-54
2022/06/22 01:23:08;;;;;;;3.65;2.22;;;;;;;12.36;98.09;96268.50;10374154;28;20225;-51
2022/06/22 01:28:13;;;;;;;3.70;2.38;;;;;;;12.24;98.14;96257.63;10374404;28;20590;-51
2022/06/22 01:33:25;;;;;;;2.63;2.20;;;;;;;12.13;100.00;96259.66;10375542;28;20193;-52
2022/06/22 01:38:28;;;;;;;3.22;2.70;;;;;;;12.18;99.88;96259.13;10357990;28;20252;-52
2022/06/22 01:43:47;;;;;;;4.55;2.40;;;;;;;12.29;99.55;96250.00;10374915;28;20201;-51
2022/06/22 01:48:57;;;;;;;4.10;2.80;;;;;;;12.13;100.00;96254.41;10357548;28;20197;-51
2022/06/22 01:54:05;;;;;;;5.57;2.50;;;;;;;12.25;100.00;96240.84;10357202;28;20186;-55
2022/06/22 01:59:27;;;;;;;4.30;2.72;;;;;;;12.18;100.00;96247.81;10357070;28;20707;-51
2022/06/22 02:04:33;;;;;;;2.40;2.20;;;;;;;12.24;100.00;96252.38;10374590;28;20264;-55
2022/06/22 02:09:55;;;;;;;3.47;2.20;;;;;;;12.37;100.00;96257.81;10356790;28;20224;-51
2022/06/22 02:15:19;;;;;;;8.02;2.30;;;;;;;12.36;100.00;96252.72;10398641;23;20383;-53
2022/06/22 02:20:29;;;;;;;5.25;2.22;;;;;;;12.62;97.47;96236.56;10478521;28;20216;-51
2022/06/22 02:25:31;;;;;;;2.97;1.85;;;;;;;13.24;87.78;96210.81;10486732;28;20219;-51
2022/06/22 02:30:32;;;;;;;2.65;1.60;;;;;;;14.20;78.54;96149.94;10455526;28;20275;-50
2022/06/22 02:35:33;;;;;;;5.47;1.90;;;;;;;14.97;72.57;96098.78;10454090;28;20294;-50
2022/06/22 02:44:29;;;;;;;4.53;1.50;;;;;;;15.25;70.52;96104.91;10437466;28;20219;-51
2022/06/22 02:45:55;;;;;;;5.18;1.20;;;;;;;15.40;69.73;96099.47;10454780;28;20218;-51
2022/06/22 02:51:01;;;;;;;5.30;1.60;;;;;;;15.22;70.58;96119.34;10453652;28;20303;-52
2022/06/22 02:56:10;;;;;;;6.57;2.05;;;;;;;14.33;80.30;96229.03;10435656;28;20288;-52
2022/06/22 03:01:13;;;;;;;3.10;1.98;;;;;;;13.69;82.74;96222.03;10435421;28;20694;-50
2022/06/22 03:06:16;;;;;;;3.35;1.95;;;;;;;13.51;83.94;96219.84;10453533;28;20220;-52
2022/06/22 03:11:17;;;;;;;6.65;2.10;;;;;;;13.06;86.65;96238.31;10436258;28;20187;-50
2022/06/22 03:16:26;;;;;;;3.30;2.13;;;;;;;13.12;87.30;96229.69;10421306;28;20239;-51
2022/06/22 03:21:27;;;;;;;2.83;2.08;;;;;;;13.40;83.97;96202.75;10411930;28;20220;-50
2022/06/22 03:26:34;;;;;;;3.10;1.50;;;;;;;14.17;76.47;96140.59;10394015;28;20219;-51
2022/06/22 03:31:42;;;;;;;2.25;1.17;;;;;;;14.88;71.75;96114.97;10393026;28;20587;-52
2022/06/22 03:36:46;;;;;;;7.38;1.58;;;;;;;15.27;69.41;96079.97;10392286;28;20297;-50
2022/06/22 03:41:56;;;;;;;3.78;1.63;;;;;;;15.57;67.82;96073.47;10411198;28;20613;-50
2022/06/22 03:46:59;;;;;;;3.55;1.52;;;;;;;15.73;67.01;96069.59;10410619;28;20733;-50
2022/06/22 03:52:08;;;;;;;2.53;1.50;;;;;;;15.80;66.12;96057.22;10393099;28;20185;-50
2022/06/22 03:57:11;;;;;;;1.77;1.05;;;;;;;15.89;65.86;96050.72;10393301;28;20295;-50
2022/06/22 04:02:12;;;;;;;5.05;1.30;;;;;;;15.99;64.74;96039.72;10391092;28;20213;-50
2022/06/22 04:07:14;;;;;;;4.20;1.17;;;;;;;16.03;64.82;96048.84;10410718;28;20220;-49
2022/06/22 04:12:26;;;;;;;3.42;1.13;;;;;;;16.11;64.31;96047.81;10410940;28;20192;-49
2022/06/22 04:17:33;;;;;;;1.42;0.98;;;;;;;16.25;63.80;96045.94;10425077;28;20688;-55
2022/06/22 04:22:38;;;;;;;2.63;1.20;;;;;;;16.34;63.25;96032.28;10443201;28;20230;-52
2022/06/22 04:27:41;;;;;;;2.78;1.33;;;;;;;16.44;62.37;96025.75;10432768;28;20601;-52
2022/06/22 04:32:45;;;;;;;4.07;1.27;;;;;;;16.62;61.12;96002.06;10433079;28;20663;-56
2022/06/22 04:37:50;;;;;;;4.90;1.05;;;;;;;16.71;61.06;96002.63;10450982;28;20243;-57
2022/06/22 04:42:58;;;;;;;7.13;1.50;;;;;;;16.74;60.86;96012.78;10434026;28;20223;-54
2022/06/22 04:48:23;;;;;;;1.17;1.08;;;;;;;16.72;61.02;96007.72;10449795;28;20216;-53
2022/06/22 04:53:35;;;;;;;1.67;1.10;;;;;;;16.74;60.61;96002.19;10419006;28;20188;-51
2022/06/22 04:58:48;;;;;;;3.60;1.30;;;;;;;16.87;59.79;96004.78;10417715;28;20208;-50
2022/06/22 05:03:49;;;;;;;3.40;1.15;;;;;;;16.93;60.20;96017.16;10430422;28;20637;-49
2022/06/22 05:09:12;;;;;;;1.13;1.02;;;;;;;17.04;59.76;96002.41;10440457;28;20244;-49
2022/06/22 05:14:32;;;;;;;1.67;1.08;;;;;;;17.11;59.06;96007.69;10440317;28;20195;-54
2022/06/22 05:19:42;;;;;;;6.57;1.17;;;;;;;17.09;59.21;96021.13;10449274;28;20322;-57
2022/06/22 05:24:45;;;;;;;1.23;1.00;;;;;;;17.22;58.98;96016.75;10440463;28;20192;-55
2022/06/22 05:29:54;;;;;;;2.85;1.10;;;;;;;17.25;59.06;96021.63;10457585;28;20195;-56
2022/06/22 05:34:55;;;;;;;2.88;1.20;;;;;;;17.28;57.81;95995.50;10457061;28;20250;-53
2022/06/22 05:39:56;;;;;;;2.67;1.40;;;;;;;17.20;58.65;96016.16;10456014;28;20918;-55
2022/06/22 05:44:57;;;;;;;3.13;1.10;;;;;;;17.44;57.22;95991.53;10438565;28;20206;-54
2022/06/22 05:50:38;;;;;;;5.65;1.38;;;;;;;17.48;56.88;95982.09;10438580;28;20184;-55
2022/06/22 05:56:17;;;;;;;1.67;1.30;;;;;;;17.67;56.66;95984.78;10423786;28;20228;-56
2022/06/22 06:01:52;;;;;;;3.05;1.20;;;;;;;17.71;57.06;96001.06;10435987;28;20265;-51
2022/06/22 06:06:55;;;;;;;4.78;1.48;;;;;;;17.74;56.76;95990.81;10415117;28;20223;-57
2022/06/22 06:12:01;;;;;;;3.10;1.35;;;;;;;17.98;56.17;95986.53;10415334;28;20181;-54
2022/06/22 06:17:08;;;;;;;3.75;1.30;;;;;;;18.06;55.72;95982.75;10414073;28;20236;-53
2022/06/22 06:22:09;;;;;;;2.92;1.42;;;;;;;18.28;56.18;96009.63;10397229;28;20220;-55
2022/06/22 06:32:49;;;;;;;4.43;1.63;;;;;;;19.38;55.36;96014.84;10399575;28;20655;-55
2022/06/22 06:38:04;;;;;;;5.43;1.45;;;;;;;20.09;52.82;95973.13;10413771;28;20223;-57
2022/06/22 06:43:39;;;;;;;2.33;1.40;;;;;;;20.40;51.48;95952.44;10396517;28;20224;-54
2022/06/22 06:48:42;;;;;;;2.45;1.42;;;;;;;21.57;49.05;95913.88;10395563;28;20205;-54
2022/06/22 06:53:52;;;;;;;7.22;1.55;;;;;;;22.08;47.73;95901.16;10396090;28;20544;-58
2022/06/22 06:58:55;;;;;;;3.58;1.70;;;;;;;21.10;49.59;95923.03;10413147;28;20212;-53
2022/06/22 07:04:03;;;;;;;2.33;1.40;;;;;;;20.48;51.20;95956.56;10395312;28;20192;-57
2022/06/22 07:09:14;;;;;;;2.10;1.30;;;;;;;21.98;49.50;95952.53;10394655;28;20227;-54
2022/06/22 07:14:33;;;;;;;2.65;1.40;;;;;;;21.77;49.84;95953.34;10394638;28;20220;-57
2022/06/22 07:19:48;;;;;;;2.22;1.35;;;;;;;23.07;47.34;95941.94;10372572;28;20245;-58
2022/06/22 07:24:54;;;;;;;1.88;1.30;;;;;;;21.76;48.95;95955.22;10370389;28;20205;-53
2022/06/22 07:29:58;;;;;;;2.28;1.33;;;;;;;21.36;48.76;95911.72;10371201;28;20186;-53
2022/06/22 07:35:28;;;;;;;3.00;1.38;;;;;;;21.61;48.59;95918.47;10370901;28;20190;-56
2022/06/22 07:40:29;;;;;;;2.25;1.40;;;;;;;22.20;47.93;95917.03;10360175;28;20779;-54
2022/06/22 07:45:29;;;;;;;2.85;1.30;;;;;;;22.14;48.13;95928.72;10370409;28;20217;-55
2022/06/22 07:50:33;;;;;;;3.03;1.20;;;;;;;21.64;48.47;95923.31;10370768;28;20264;-58
2022/06/22 07:55:48;;;;;;;4.07;1.38;;;;;;;22.56;48.52;95955.63;10369123;28;20542;-50
2022/06/22 08:00:53;;;;;;;1.33;1.23;;;;;;;22.37;46.58;95900.97;10369422;28;20312;-53
2022/06/22 08:05:56;;;;;;;2.70;1.13;;;;;;;22.54;45.87;95883.00;10368519;28;20667;-55
2022/06/22 08:11:09;;;;;;;2.25;1.40;;;;;;;22.39;46.34;95897.00;10369289;28;20267;-55
2022/06/22 08:16:22;;;;;;;5.43;1.70;;;;;;;22.91;44.27;95849.38;10380406;28;20331;-55
2022/06/22 08:21:22;;;;;;;3.60;1.40;;;;;;;23.39;42.56;95799.47;10503074;23;20262;-54
2022/06/22 08:26:28;;;;;;;1.15;1.00;;;;;;;23.99;39.90;95749.09;10499897;28;20215;-57
2022/06/22 08:31:31;;;;;;;2.67;1.00;;;;;;;25.30;39.65;95778.22;10483705;28;20211;-55
2022/06/22 08:36:51;;;;;;;1.60;1.00;;;;;;;26.55;37.97;95780.72;10501794;28;20199;-54
2022/06/22 08:41:57;;;;;;;3.40;1.10;;;;;;;27.10;38.39;95817.34;10483540;28;20214;-55
2022/06/22 08:47:11;;;;;;;4.38;1.45;;;;;;;27.55;36.70;95782.97;10501087;28;20195;-58
2022/06/22 08:52:21;;;;;;;3.08;1.10;;;;;;;26.18;37.50;95741.81;10500761;28;20864;-54
2022/06/22 08:57:59;;;;;;;1.85;1.08;;;;;;;26.09;38.21;95779.19;10482453;28;20233;-59
2022/06/22 09:03:23;;;;;;;3.13;1.30;;;;;;;26.72;37.78;95788.41;10478636;28;20227;-59
2022/06/22 09:08:44;;;;;;;3.50;1.40;;;;;;;28.19;37.12;95823.88;10481866;28;20235;-57
2022/06/22 09:14:01;;;;;;;3.33;1.35;;;;;;;28.66;34.25;95748.56;10482224;28;20187;-56
2022/06/22 09:19:20;;;;;;;4.07;1.30;;;;;;;28.26;37.65;95826.22;10480914;28;20254;-58
2022/06/22 09:24:23;;;;;;;2.08;1.08;;;;;;;28.13;39.29;95883.50;10499659;28;20666;-58
2022/06/22 09:29:41;;;;;;;3.25;1.10;;;;;;;29.23;36.06;95821.16;10481146;28;20272;-56
2022/06/22 09:35:09;;;;;;;3.08;1.42;;;;;;;26.74;37.14;95758.56;10498923;28;20195;-56
2022/06/22 09:40:19;;;;;;;2.97;1.30;;;;;;;28.85;35.29;95798.91;10498625;28;20245;-59
2022/06/22 09:45:31;;;;;;;4.30;1.33;;;;;;;28.17;33.90;95712.97;10498764;28;20203;-54
2022/06/22 09:51:00;;;;;;;4.50;1.15;;;;;;;28.74;33.04;95725.50;10498370;28;20297;-59
2022/06/22 09:56:24;;;;;;;2.15;1.10;;;;;;;27.77;35.39;95739.38;10480756;28;20187;-56
2022/06/22 10:01:41;;;;;;;2.78;1.40;;;;;;;27.36;35.69;95756.84;10498248;28;20227;-57
2022/06/22 10:06:56;;;;;;;2.45;1.45;;;;;;;30.29;34.49;95834.72;10498155;28;20207;-54
2022/06/22 10:12:12;;;;;;;4.90;1.10;;;;;;;31.38;31.65;95763.31;10497962;28;20190;-55
2022/06/22 10:17:24;;;;;;;1.90;1.00;;;;;;;29.45;33.71;95760.31;10498592;28;20219;-57
2022/06/22 10:23:00;;;;;;;4.63;1.30;;;;;;;29.47;32.89;95731.13;10479896;28;20367;-58
2022/06/22 10:28:13;;;;;;;2.97;1.20;;;;;;;30.30;32.75;95763.31;10478996;28;20210;-57
2022/06/22 10:34:03;;;;;;;1.65;1.27;;;;;;;31.68;30.14;95739.19;10479227;28;20187;-60
2022/06/22 10:39:28;;;;;;;1.33;1.08;;;;;;;30.64;32.27;95759.28;10287643;28;20226;-58
2022/06/22 10:45:11;;;;;;;3.85;1.20;;;;;;;31.15;33.14;95813.19;10473950;28;20681;-60
2022/06/22 10:50:33;;;;;;;1.95;1.20;;;;;;;30.03;31.29;95694.00;10480186;28;20221;-55
2022/06/22 10:55:50;;;;;;;1.48;1.10;;;;;;;31.27;31.88;95787.16;10496399;28;20253;-57
2022/06/22 11:01:10;;;;;;;3.50;1.20;;;;;;;28.26;34.98;95742.72;10477636;28;20296;-57
2022/06/22 11:06:38;;;;;;;1.83;1.13;;;;;;;27.18;36.27;95766.47;10478101;28;20553;-58
2022/06/22 11:11:57;;;;;;;2.33;1.40;;;;;;;26.32;37.00;95772.31;10495041;28;20214;-56
2022/06/22 11:17:19;;;;;;;2.42;1.00;;;;;;;28.08;34.31;95772.06;10495120;28;20210;-59
2022/06/22 11:22:30;;;;;;;2.30;1.30;;;;;;;28.87;34.46;95785.91;10477650;28;20214;-55
2022/06/22 11:33:32;;;;;;;1.83;1.05;;;;;;;30.80;32.87;95815.69;10479867;28;20191;-54
2022/06/22 11:38:51;;;;;;;1.88;1.20;;;;;;;30.54;33.25;95809.00;10493950;28;20558;-55
2022/06/22 11:44:28;;;;;;;2.88;1.20;;;;;;;30.62;33.31;95809.38;10494430;28;20201;-56
2022/06/22 11:49:38;;;;;;;3.05;1.35;;;;;;;30.63;32.86;95800.16;10494139;28;20831;-54
2022/06/22 11:55:01;;;;;;;2.47;1.23;;;;;;;32.08;30.11;95774.28;10476369;28;20211;-57
2022/06/22 12:00:11;;;;;;;2.17;1.40;;;;;;;33.15;29.61;95784.69;10444631;28;20227;-55
2022/06/22 12:05:36;;;;;;;2.28;1.15;;;;;;;31.72;30.79;95767.25;10476791;28;20245;-58
2022/06/22 12:11:13;;;;;;;3.42;1.27;;;;;;;30.88;32.20;95785.19;10475819;28;20215;-56
2022/06/22 12:16:41;;;;;;;2.65;1.27;;;;;;;31.13;31.08;95759.41;10492971;28;20250;-57
2022/06/22 12:22:01;;;;;;;2.92;1.35;;;;;;;30.44;30.46;95698.44;10493041;28;20242;-55
2022/06/22 12:27:13;;;;;;;1.80;1.30;;;;;;;29.18;32.54;95716.81;10479616;28;20191;-54
2022/06/22 12:32:19;;;;;;;7.80;1.38;;;;;;;27.71;34.17;95703.66;10433820;28;20646;-60
2022/06/22 12:37:23;;;;;;;1.90;1.33;;;;;;;29.70;33.76;95816.47;10451589;28;20215;-60
2022/06/22 12:42:45;;;;;;;3.85;1.48;;;;;;;30.90;30.77;95755.94;10433858;28;20231;-60
2022/06/22 12:48:19;;;;;;;2.55;1.30;;;;;;;30.91;32.82;95820.53;10433470;28;20223;-59
2022/06/22 12:53:36;;;;;;;2.75;1.52;;;;;;;32.01;30.85;95804.56;10433517;28;20196;-60
2022/06/22 12:58:45;;;;;;;2.72;1.40;;;;;;;32.42;30.40;95796.31;10433476;28;20212;-60
2022/06/22 13:03:50;;;;;;;1.98;1.38;;;;;;;30.55;31.72;95753.03;10433413;28;20595;-60
2022/06/22 13:08:52;;;;;;;3.03;1.20;;;;;;;30.37;31.15;95725.09;10433712;28;20247;-56
2022/06/22 13:14:19;;;;;;;3.72;1.10;;;;;;;30.36;33.80;95818.06;10458669;28;20230;-58
2022/06/22 13:19:24;;;;;;;3.00;1.40;;;;;;;29.91;33.47;95785.56;10440229;28;20231;-59
2022/06/22 13:25:01;;;;;;;2.60;1.38;;;;;;;29.96;33.04;95750.34;10458289;28;20200;-58
2022/06/22 13:30:22;;;;;;;4.25;1.30;;;;;;;30.10;34.71;95815.94;10458070;28;20218;-59
2022/06/22 13:35:30;;;;;;;7.75;2.50;;;;;;;30.57;33.48;95813.78;10440504;28;20617;-60
2022/06/22 13:40:42;;;;;;;1.55;1.15;;;;;;;31.78;31.05;95767.91;10439790;28;20245;-55
2022/06/22 13:45:54;;;;;;;5.75;1.27;;;;;;;34.48;29.36;95811.59;10440062;28;20249;-58
2022/06/22 13:51:51;;;;;;;1.73;1.20;;;;;;;36.84;26.48;95786.72;10439288;28;20580;-61
2022/06/22 13:57:01;;;;;;;3.13;1.33;;;;;;;36.06;25.46;95707.78;10409931;28;20202;-60
2022/06/22 14:02:34;;;;;;;1.85;1.30;;;;;;;37.19;25.32;95736.88;10439049;28;20227;-60
2022/06/22 14:07:42;;;;;;;2.75;1.40;;;;;;;38.98;24.42;95760.97;10440537;28;20317;-61
2022/06/22 14:12:51;;;;;;;3.70;1.23;;;;;;;37.84;24.51;95702.84;10439033;28;20248;-58
2022/06/22 14:17:56;;;;;;;2.15;1.30;;;;;;;38.34;24.32;95733.97;10460095;23;20228;-62
2022/06/22 14:23:02;;;;;;;3.50;1.27;;;;;;;39.62;23.23;95710.31;10495499;28;20324;-63
2022/06/22 14:28:29;;;;;;;3.47;1.20;;;;;;;40.39;22.64;95716.41;10479051;28;20308;-63
2022/06/22 14:34:19;;;;;;;2.38;1.20;;;;;;;36.00;26.13;95615.69;10496755;28;20206;-62
2022/06/22 14:39:43;;;;;;;2.25;1.40;;;;;;;32.30;29.98;95635.13;10424486;28;20260;-62
2022/06/22 14:45:01;;;;;;;2.22;1.38;;;;;;;31.08;31.57;95648.63;10478497;28;20264;-62
2022/06/22 14:50:16;;;;;;;3.17;1.33;;;;;;;30.86;31.62;95661.09;10495546;28;20273;-62
2022/06/22 14:55:34;;;;;;;4.35;1.42;;;;;;;29.61;34.40;95723.81;10495825;28;20210;-62
2022/06/22 15:00:38;;;;;;;7.25;1.50;;;;;;;29.97;34.22;95749.25;10495227;28;20231;-62
2022/06/22 15:06:10;;;;;;;2.10;1.70;;;;;;;29.71;33.51;95717.41;10476854;28;20183;-61
2022/06/22 15:17:01;;;;;;;5.68;1.58;;;;;;;28.57;36.11;95764.56;10479328;28;20203;-61
2022/06/22 15:22:11;;;;;;;2.17;1.55;;;;;;;28.62;36.56;95778.00;10489155;28;20242;-61
2022/06/22 15:27:57;;;;;;;6.07;1.88;;;;;;;29.19;36.08;95793.19;10450988;28;20192;-63
2022/06/22 15:33:12;;;;;;;3.92;1.55;;;;;;;29.34;33.89;95713.84;10367508;28;20211;-61
2022/06/22 15:38:16;;;;;;;4.97;1.90;;;;;;;29.26;35.25;95777.41;10470046;28;20257;-62
2022/06/22 15:43:45;;;;;;;3.75;1.40;;;;;;;30.37;33.09;95755.59;10456914;28;20224;-62
2022/06/22 15:49:12;;;;;;;3.33;1.85;;;;;;;30.48;34.03;95780.50;10463635;28;20216;-63
2022/06/22 15:54:33;;;;;;;5.47;1.40;;;;;;;29.59;35.10;95768.38;10472669;28;20207;-63
2022/06/22 15:59:53;;;;;;;3.40;1.70;;;;;;;29.90;34.30;95768.56;10469409;28;20250;-63
2022/06/22 16:05:00;;;;;;;2.00;1.40;;;;;;;29.80;34.71;95777.72;10466726;28;20219;-62
2022/06/22 16:10:07;;;;;;;3.30;1.60;;;;;;;29.76;34.28;95763.16;10469860;28;20637;-63
2022/06/22 16:15:35;;;;;;;4.40;1.48;;;;;;;29.70;33.31;95740.09;10449389;28;20666;-62
2022/06/22 16:20:50;;;;;;;3.05;1.95;;;;;;;29.31;34.07;95738.72;10434430;28;20246;-62
2022/06/22 16:26:17;;;;;;;2.47;1.73;;;;;;;28.02;35.50;95734.75;10460174;28;20284;-60
2022/06/22 16:31:28;;;;;;;3.08;1.50;;;;;;;27.78;38.08;95797.50;10422475;28;20206;-63
2022/06/22 16:36:36;;;;;;;2.53;1.58;;;;;;;27.84;37.30;95782.06;10455195;28;20195;-59
2022/06/22 16:41:45;;;;;;;4.53;1.83;;;;;;;27.66;37.76;95797.13;10475509;28;20222;-61
2022/06/22 16:46:52;;;;;;;3.45;1.63;;;;;;;27.65;36.34;95764.03;10477047;28;20200;-62
2022/06/22 16:52:02;;;;;;;14.02;1.92;;;;;;;27.49;37.13;95781.44;10497802;28;20226;-62
2022/06/22 16:57:07;;;;;;;6.32;1.70;;;;;;;27.56;38.68;95841.88;10480023;28;20202;-61
2022/06/22 17:02:24;;;;;;;3.38;1.40;;;;;;;27.93;38.28;95837.69;10494632;28;20242;-62
2022/06/22 17:07:34;;;;;;;5.20;1.50;;;;;;;27.19;37.06;95770.72;10464404;28;20195;-62
2022/06/22 17:12:38;;;;;;;4.47;1.60;;;;;;;26.92;39.18;95843.06;10469397;28;20661;-61
2022/06/22 17:17:53;;;;;;;3.80;1.63;;;;;;;26.82;38.59;95817.88;10456921;28;20219;-61
2022/06/22 17:22:58;;;;;;;5.03;2.00;;;;;;;26.42;38.63;95802.88;10439862;28;20712;-62
2022/06/22 17:28:08;;;;;;;2.08;1.50;;;;;;;26.32;38.55;95806.44;10457430;28;20204;-60
2022/06/22 17:33:49;;;;;;;4.97;1.60;;;;;;;26.53;38.57;95824.00;10440192;28;20188;-61
2022/06/22 17:39:15;;;;;;;3.55;1.70;;;;;;;26.67;39.24;95853.72;10444323;28;22219;-62
2022/06/22 17:44:25;;;;;;;3.20;1.95;;;;;;;26.43;40.95;95896.59;10496918;28;20202;-62
2022/06/22 17:49:33;;;;;;;5.15;2.30;;;;;;;26.29;41.41;95909.03;10479515;28;20211;-60
2022/06/22 17:54:40;;;;;;;5.90;2.00;;;;;;;26.47;38.69;95832.38;10479730;28;20192;-57
2022/06/22 17:59:46;;;;;;;2.55;1.60;;;;;;;26.56;39.59;95864.81;10480170;28;20223;-62
2022/06/22 18:04:50;;;;;;;1.60;1.50;;;;;;;26.41;40.05;95877.25;10480561;28;20266;-60
2022/06/22 18:09:59;;;;;;;2.45;1.67;;;;;;;26.22;40.03;95871.75;10497650;28;20202;-61
2022/06/22 18:15:12;;;;;;;2.50;1.85;;;;;;;25.96;40.77;95877.22;10497185;28;20237;-61
2022/06/22 18:20:22;;;;;;;3.65;1.83;;;;;;;25.49;40.50;95856.19;10496861;28;20269;-61
2022/06/22 18:25:38;;;;;;;2.42;1.73;;;;;;;25.49;40.51;95861.56;10497266;28;20188;-58
2022/06/22 18:30:44;;;;;;;4.05;1.75;;;;;;;25.01;41.13;95867.22;10496843;28;20207;-59
2022/06/22 18:36:05;;;;;;;4.32;1.67;;;;;;;24.74;42.27;95908.50;10479269;28;20199;-60
2022/06/22 18:46:36;;;;;;;1.70;1.60;;;;;;;23.22;47.96;96017.97;10496341;28;20187;-60
2022/06/22 18:51:39;;;;;;;3.45;1.83;;;;;;;22.68;50.53;96080.97;10496072;28;20634;-61
2022/06/22 18:56:53;;;;;;;8.00;6.88;;;;;;;22.71;51.53;96099.19;10495956;28;20282;-60
2022/06/22 19:02:02;;;;;;;7.40;5.30;;;;;;;22.08;53.04;96115.41;10477551;28;20239;-59
2022/06/22 19:07:08;;;;;;;10.27;5.28;;;;;;;20.85;56.02;96159.31;10477163;28;20203;-60
2022/06/22 19:12:25;;;;;;;9.50;3.80;;;;;;;20.30;59.21;96195.09;10495268;28;20207;-60
2022/06/22 19:17:43;;;;;;;7.35;2.65;;;;;;;20.06;60.10;96185.50;10494513;28;20191;-61
2022/06/22 19:23:18;;;;;;;3.78;2.50;;;;;;;19.64;61.84;96175.69;10453551;28;20265;-59
2022/06/22 19:28:47;;;;;;;10.38;3.05;;;;;;;19.34;63.27;96183.66;10453573;28;20208;-60
2022/06/22 19:34:02;;;;;;;9.88;2.83;;;;;;;18.68;66.07;96192.19;10435728;28;20195;-60
2022/06/22 19:39:12;;;;;;;2.92;2.63;;;;;;;18.57;66.75;96181.50;10453095;28;20218;-58
2022/06/22 19:44:21;;;;;;;6.30;3.00;;;;;;;18.51;67.46;96170.75;10453162;28;20250;-58
2022/06/22 19:49:37;;;;;;;10.88;4.45;;;;;;;18.14;69.23;96183.94;10435159;28;20260;-56
2022/06/22 19:54:48;;;;;;;8.70;6.93;;;;;;;18.07;70.08;96179.72;10452862;28;20230;-53
2022/06/22 19:59:51;;;;;;;6.13;3.10;;;;;;;17.68;71.64;96200.97;10434730;28;20793;-57
2022/06/22 20:05:27;;;;;;;5.20;3.08;;;;;;;17.71;71.96;96191.78;10452208;28;20279;-56
2022/06/22 20:11:06;;;;;;;4.90;3.00;;;;;;;17.75;70.46;96169.94;10452037;28;20219;-57
2022/06/22 20:16:19;;;;;;;4.13;3.00;;;;;;;17.88;70.00;96189.44;10433915;28;20257;-58
2022/06/22 20:21:28;;;;;;;5.10;2.88;;;;;;;17.86;69.93;96188.84;10470490;23;20296;-49
2022/06/22 20:26:36;;;;;;;4.63;2.55;;;;;;;17.66;70.81;96203.03;10452004;28;20659;-50
2022/06/22 20:31:48;;;;;;;4.10;2.70;;;;;;;17.47;71.13;96202.94;10433993;28;20196;-49
2022/06/22 20:36:59;;;;;;;4.50;2.90;;;;;;;17.61;70.53;96208.13;10451999;28;20241;-51
2022/06/22 20:42:52;;;;;;;4.53;2.90;;;;;;;17.36;71.91;96221.31;10451637;28;20865;-49
2022/06/22 20:48:23;;;;;;;5.45;2.70;;;;;;;17.25;72.05;96226.25;10433833;28;20690;-50
2022/06/22 20:53:47;;;;;;;2.92;2.53;;;;;;;16.91;74.07;96245.94;10451384;28;20222;-50
2022/06/22 20:58:53;;;;;;;3.45;2.55;;;;;;;16.81;74.54;96248.16;10433599;28;20188;-51
2022/06/22 21:04:10;;;;;;;4.97;2.88;;;;;;;16.74;74.47;96254.28;10451500;28;20620;-50
2022/06/22 21:09:13;;;;;;;5.38;3.03;;;;;;;16.77;74.72;96251.22;10450843;28;20207;-51
2022/06/22 21:14:30;;;;;;;3.60;3.25;;;;;;;16.65;75.38;96271.41;10433112;28;20369;-51
2022/06/22 21:19:47;;;;;;;5.00;2.97;;;;;;;16.49;76.53;96271.81;10450934;28;20673;-50
2022/06/22 21:24:57;;;;;;;4.30;2.80;;;;;;;16.23;77.66;96273.44;10451053;28;20357;-53
2022/06/22 21:30:21;;;;;;;3.90;2.85;;;;;;;16.25;78.16;96282.00;10451492;28;20253;-53
2022/06/22 21:35:32;;;;;;;4.25;3.22;;;;;;;16.12;78.35;96276.69;10440427;28;20754;-50
2022/06/22 21:40:46;;;;;;;7.70;3.20;;;;;;;16.11;78.65;96283.81;10457835;28;20243;-49
2022/06/22 21:46:02;;;;;;;3.30;3.00;;;;;;;15.98;79.17;96289.88;10440215;28;20560;-50
2022/06/22 21:51:12;;;;;;;8.45;3.30;;;;;;;15.82;80.24;96295.56;10440171;28;20211;-50
2022/06/22 21:56:45;;;;;;;4.57;2.70;;;;;;;15.80;80.72;96302.84;10439815;28;20192;-49
2022/06/22 22:02:13;;;;;;;3.50;3.20;;;;;;;15.76;80.58;96298.94;10439127;28;20256;-49
2022/06/22 22:07:14;;;;;;;3.63;2.97;;;;;;;15.62;81.78;96300.72;10439006;28;20246;-49
2022/06/22 22:12:18;;;;;;;3.47;3.17;;;;;;;15.48;82.29;96303.34;10456667;28;20212;-51
2022/06/22 22:17:43;;;;;;;5.50;3.20;;;;;;;15.44;82.66;96309.22;10438307;28;20195;-50
2022/06/22 22:22:47;;;;;;;4.38;3.13;;;;;;;15.36;83.02;96304.94;10453080;28;20227;-50
2022/06/22 22:27:51;;;;;;;4.57;3.30;;;;;;;15.31;83.51;96302.88;10497612;28;20673;-50
2022/06/22 22:32:51;;;;;;;3.63;3.33;;;;;;;15.20;83.74;96306.06;10479745;28;20661;-52
2022/06/22 22:37:51;;;;;;;4.75;3.47;;;;;;;15.04;84.93;96306.38;10497094;28;20203;-51
2022/06/22 22:42:52;;;;;;;4.75;3.20;;;;;;;14.93;85.59;96313.00;10477777;28;20234;-49
2022/06/22 22:47:54;;;;;;;5.63;3.30;;;;;;;14.79;86.97;96314.75;10478766;28;20191;-51
2022/06/22 22:52:58;;;;;;;5.18;3.20;;;;;;;14.66;88.25;96310.22;10478609;28;20276;-53
2022/06/22 22:58:03;;;;;;;3.50;3.20;;;;;;;14.59;88.54;96312.78;10496019;28;20719;-50
2022/06/22 23:03:27;;;;;;;6.25;3.25;;;;;;;14.41;89.86;96304.50;10495919;28;20261;-51
2022/06/22 23:08:28;;;;;;;3.65;3.10;;;;;;;14.38;90.26;96302.25;10495835;28;20308;-57
2022/06/22 23:13:35;;;;;;;5.75;3.47;;;;;;;14.26;90.90;96302.78;10495786;28;20195;-54
2022/06/22 23:18:38;;;;;;;4.43;3.47;;;;;;;14.19;91.70;96298.44;10476997;28;20199;-52
2022/06/22 23:23:40;;;;;;;3.90;3.50;;;;;;;14.09;92.81;96293.50;10494909;28;20231;-52
2022/06/22 23:28:47;;;;;;;9.68;3.72;;;;;;;13.98;93.36;96300.09;10494831;28;20214;-52
2022/06/22 23:33:47;;;;;;;7.35;3.45;;;;;;;13.93;93.53;96296.38;10477288;28;20207;-52
2022/06/22 23:38:49;;;;;;;5.85;3.60;;;;;;;13.86;94.26;96294.50;10494390;28;20199;-49
2022/06/22 23:44:10;;;;;;;7.60;3.72;;;;;;;13.65;95.90;96300.56;10476608;28;20254;-52
2022/06/22 23:49:14;;;;;;;4.50;3.72;;;;;;;13.62;96.10;96287.78;10476110;28;20214;-50
2022/06/22 23:54:17;;;;;;;4.32;3.92;;;;;;;13.65;96.02;96276.88;10476181;28;20218;-50
2022/06/22 23:59:21;;;;;;;6.57;3.75;;;;;;;13.56;96.17;96278.78;10476110;28;20195;-55
